createdAt,value
2022-08-20T00:00:25.092Z,100414.03
2022-08-20T00:02:55.589Z,100419.09
2022-08-20T00:05:32.317Z,100411.81
2022-08-20T00:08:00.477Z,100408.56
2022-08-20T00:10:28.928Z,100410.72
2022-08-20T00:12:56.938Z,100410.72
2022-08-20T00:15:29.312Z,100409.00
2022-08-20T00:17:57.259Z,100405.50
2022-08-20T00:20:29.375Z,100394.44
2022-08-20T00:22:57.817Z,100392.50
2022-08-20T00:25:26.391Z,100391.47
2022-08-20T00:27:53.055Z,100386.00
2022-08-20T00:30:20.353Z,100396.56
2022-08-20T00:32:56.458Z,100388.81
2022-08-20T00:35:25.428Z,100382.44
2022-08-20T00:37:55.386Z,100395.25
2022-08-20T00:40:29.511Z,100393.91
2022-08-20T00:42:58.466Z,100386.13
2022-08-20T00:45:28.080Z,100381.03
2022-08-20T00:47:55.659Z,100381.03
2022-08-20T00:50:32.594Z,100376.97
2022-08-20T00:53:00.514Z,100380.09
2022-08-20T00:55:31.373Z,100372.41
2022-08-20T00:58:02.039Z,100365.59
2022-08-20T01:00:39.981Z,100353.41
2022-08-20T01:03:09.782Z,100349.88
2022-08-20T01:05:39.182Z,100341.59
2022-08-20T01:08:06.553Z,100343.53
2022-08-20T01:10:37.293Z,100344.41
2022-08-20T01:13:10.913Z,100345.81
2022-08-20T01:15:43.919Z,100349.41
2022-08-20T01:18:14.636Z,100358.22
2022-08-20T01:20:45.837Z,100357.50
2022-08-20T01:23:27.770Z,100356.44
2022-08-20T01:26:07.077Z,100351.91
2022-08-20T01:28:40.074Z,100357.00
2022-08-20T01:31:11.302Z,100359.69
2022-08-20T01:33:39.056Z,100363.44
2022-08-20T01:36:06.724Z,100368.94
2022-08-20T01:38:34.246Z,100367.59
2022-08-20T01:41:07.794Z,100368.66
2022-08-20T01:43:37.005Z,100359.75
2022-08-20T01:46:04.170Z,100346.75
2022-08-20T01:48:31.732Z,100351.91
2022-08-20T01:51:04.819Z,100346.44
2022-08-20T01:53:37.246Z,100346.81
2022-08-20T01:56:07.736Z,100336.78
2022-08-20T01:58:38.226Z,100327.19
2022-08-20T02:01:05.616Z,100326.00
2022-08-20T02:03:37.424Z,100320.19
2022-08-20T02:06:06.948Z,100320.19
2022-08-20T02:08:33.872Z,100325.34
2022-08-20T02:11:00.649Z,100319.53
2022-08-20T02:13:27.334Z,100327.28
2022-08-20T02:15:54.408Z,100324.88
2022-08-20T02:18:22.166Z,100325.81
2022-08-20T02:20:51.536Z,100332.97
2022-08-20T02:23:18.795Z,100324.78
2022-08-20T02:25:47.579Z,100319.13
2022-08-20T02:28:17.604Z,100323.53
2022-08-20T02:30:48.519Z,100318.75
2022-08-20T02:33:17.909Z,100307.25
2022-08-20T02:35:48.572Z,100308.06
2022-08-20T02:38:16.430Z,100300.31
2022-08-20T02:40:44.263Z,100296.00
2022-08-20T02:43:12.150Z,100305.47
2022-08-20T02:45:43.792Z,100303.22
2022-08-20T02:48:18.474Z,100306.31
2022-08-20T02:50:45.210Z,100304.59
2022-08-20T02:53:11.991Z,100302.13
2022-08-20T02:55:38.826Z,100291.03
2022-08-20T02:58:05.822Z,100291.94
2022-08-20T03:00:37.874Z,100287.81
2022-08-20T03:03:06.604Z,100288.69
2022-08-20T03:05:33.305Z,100276.75
2022-08-20T03:08:00.244Z,100272.69
2022-08-20T03:10:32.136Z,100278.03
2022-08-20T03:13:01.571Z,100265.00
2022-08-20T03:15:30.514Z,100257.31
2022-08-20T03:17:57.454Z,100263.81
2022-08-20T03:20:26.009Z,100258.00
2022-08-20T03:22:52.805Z,100262.13
2022-08-20T03:25:19.859Z,100264.56
2022-08-20T03:27:47.252Z,100256.66
2022-08-20T03:30:22.594Z,100260.38
2022-08-20T03:32:49.281Z,100255.06
2022-08-20T03:35:17.209Z,100245.81
2022-08-20T03:37:45.763Z,100242.91
2022-08-20T03:40:21.257Z,100241.41
2022-08-20T03:42:48.010Z,100238.72
2022-08-20T03:45:18.489Z,100232.56
2022-08-20T03:47:48.576Z,100213.59
2022-08-20T03:50:22.906Z,100218.47
2022-08-20T03:52:51.653Z,100192.94
2022-08-20T03:55:20.029Z,100186.59
2022-08-20T03:57:49.713Z,100169.28
2022-08-20T04:00:20.773Z,100158.16
2022-08-20T04:02:47.733Z,100153.50
2022-08-20T04:05:14.718Z,100142.38
2022-08-20T04:07:41.621Z,100141.34
2022-08-20T04:10:10.739Z,100129.50
2022-08-20T04:12:48.666Z,100123.19
2022-08-20T04:15:24.563Z,100117.50
2022-08-20T04:17:52.763Z,100108.25
2022-08-20T04:20:23.822Z,100109.47
2022-08-20T04:22:58.959Z,100101.94
2022-08-20T04:25:35.985Z,100059.56
2022-08-20T04:28:06.002Z,100037.47
2022-08-20T04:30:33.666Z,100040.59
2022-08-20T04:33:00.907Z,100033.03
2022-08-20T04:35:32.586Z,100026.69
2022-08-20T04:38:02.507Z,100027.22
2022-08-20T04:40:48.370Z,100024.13
2022-08-20T04:43:15.469Z,100027.88
2022-08-20T04:45:42.472Z,100037.84
2022-08-20T04:48:14.275Z,100035.78
2022-08-20T04:50:43.671Z,100041.28
2022-08-20T04:53:12.733Z,100032.00
2022-08-20T04:55:42.804Z,100045.91
2022-08-20T04:58:20.896Z,100029.25
2022-08-20T05:01:01.333Z,100035.28
2022-08-20T05:03:29.025Z,100087.09
2022-08-20T05:05:56.931Z,100091.88
2022-08-20T05:08:26.043Z,100094.09
2022-08-20T05:10:58.111Z,100100.81
2022-08-20T05:13:41.078Z,100104.56
2022-08-20T05:16:08.149Z,100084.50
2022-08-20T05:18:35.262Z,100072.84
2022-08-20T05:21:06.151Z,100056.66
2022-08-20T05:23:35.752Z,100054.94
2022-08-20T05:26:07.542Z,100056.44
2022-08-20T05:28:36.917Z,100056.28
2022-08-20T05:31:20.916Z,100057.47
2022-08-20T05:33:48.841Z,100055.91
2022-08-20T05:36:15.575Z,100045.91
2022-08-20T05:38:44.257Z,100049.44
2022-08-20T05:41:29.022Z,100043.91
2022-08-20T05:44:03.591Z,100048.53
2022-08-20T05:46:31.822Z,100039.88
2022-08-20T05:49:01.631Z,100035.81
2022-08-20T05:51:32.371Z,100029.72
2022-08-20T05:53:59.846Z,100014.25
2022-08-20T05:56:30.644Z,100009.03
2022-08-20T05:59:04.418Z,99995.28
2022-08-20T06:01:33.545Z,99983.22
2022-08-20T06:04:19.450Z,99970.25
2022-08-20T06:06:47.391Z,99964.09
2022-08-20T06:09:31.481Z,99966.94
2022-08-20T06:12:04.162Z,99963.06
2022-08-20T06:14:32.081Z,99962.53
2022-08-20T06:17:06.359Z,99968.81
2022-08-20T06:19:35.123Z,99971.13
2022-08-20T06:22:06.798Z,99975.38
2022-08-20T06:24:47.711Z,99975.19
2022-08-20T06:27:16.359Z,99970.75
2022-08-20T06:29:43.795Z,99965.13
2022-08-20T06:32:10.471Z,99976.69
2022-08-20T06:34:37.362Z,100006.94
2022-08-20T06:37:16.050Z,100078.56
2022-08-20T06:39:43.240Z,100172.69
2022-08-20T06:42:09.970Z,100190.38
2022-08-20T06:44:37.571Z,100201.63
2022-08-20T06:47:05.821Z,100243.50
2022-08-20T06:49:36.558Z,100286.81
2022-08-20T06:52:05.409Z,100307.94
2022-08-20T06:54:32.867Z,100333.59
2022-08-20T06:56:59.799Z,100357.75
2022-08-20T06:59:26.587Z,100370.03
2022-08-20T07:01:56.784Z,100370.97
2022-08-20T07:04:26.022Z,100387.38
2022-08-20T07:06:55.018Z,100407.72
2022-08-20T07:09:22.367Z,100406.78
2022-08-20T07:11:49.653Z,100419.97
2022-08-20T07:14:17.693Z,100436.66
2022-08-20T07:16:45.105Z,100462.28
2022-08-20T07:19:11.810Z,100466.25
2022-08-20T07:21:39.430Z,100472.88
2022-08-20T07:24:06.700Z,100489.78
2022-08-20T07:26:34.569Z,100481.69
2022-08-20T07:29:01.364Z,100498.03
2022-08-20T07:31:48.146Z,100528.50
2022-08-20T07:34:15.026Z,100564.84
2022-08-20T07:36:41.742Z,100595.75
2022-08-20T07:39:09.372Z,100628.25
2022-08-20T07:41:36.324Z,100647.03
2022-08-20T07:44:03.288Z,100662.22
2022-08-20T07:46:31.716Z,100680.78
2022-08-20T07:48:59.092Z,100689.53
2022-08-20T07:51:26.157Z,100719.28
2022-08-20T07:53:53.245Z,100745.31
2022-08-20T07:59:25.105Z,100809.72
2022-08-20T08:01:52.984Z,100828.03
2022-08-20T08:04:19.871Z,100886.47
2022-08-20T08:06:46.784Z,100922.31
2022-08-20T08:09:14.915Z,100948.81
2022-08-20T08:11:47.849Z,100998.22
2022-08-20T08:14:19.701Z,101071.66
2022-08-20T08:16:46.519Z,101134.31
2022-08-20T08:19:16.952Z,101177.63
2022-08-20T08:21:44.452Z,101211.59
2022-08-20T08:24:14.350Z,101242.59
2022-08-20T08:26:44.014Z,101277.88
2022-08-20T08:29:12.148Z,101302.06
2022-08-20T08:31:40.956Z,101315.72
2022-08-20T08:34:08.159Z,101325.50
2022-08-20T08:36:34.816Z,101346.22
2022-08-20T08:39:01.648Z,101369.31
2022-08-20T08:41:48.045Z,101374.72
2022-08-20T08:44:27.582Z,101371.44
2022-08-20T08:47:18.273Z,101372.63
2022-08-20T08:49:47.674Z,101382.31
2022-08-20T08:52:24.484Z,101388.09
2022-08-20T08:54:55.775Z,101381.91
2022-08-20T08:57:24.180Z,101408.47
2022-08-20T09:00:03.626Z,101420.56
2022-08-20T09:02:33.593Z,101404.78
2022-08-20T09:05:04.249Z,101404.50
2022-08-20T09:07:33.584Z,101399.03
2022-08-20T09:10:01.495Z,101392.00
2022-08-20T09:12:28.422Z,101422.50
2022-08-20T09:14:55.190Z,101427.59
2022-08-20T09:17:24.503Z,101450.31
2022-08-20T09:19:53.245Z,101457.28
2022-08-20T09:22:22.593Z,101429.06
2022-08-20T09:24:49.944Z,101402.25
2022-08-20T09:27:16.723Z,101408.47
2022-08-20T09:29:44.035Z,101413.56
2022-08-20T09:32:19.309Z,101460.06
2022-08-20T09:34:52.546Z,101439.03
2022-08-20T09:37:19.893Z,101405.75
2022-08-20T09:39:47.670Z,101407.19
2022-08-20T09:42:18.003Z,101379.13
2022-08-20T09:44:45.351Z,101394.88
2022-08-20T09:47:12.048Z,101392.84
2022-08-20T09:49:39.281Z,101401.53
2022-08-20T09:52:08.696Z,101404.31
2022-08-20T09:54:37.374Z,101406.28
2022-08-20T09:57:07.108Z,101397.66
2022-08-20T09:59:35.709Z,101383.28
2022-08-20T10:02:03.026Z,101376.78
2022-08-20T10:04:30.197Z,101390.16
2022-08-20T10:06:57.007Z,101399.44
2022-08-20T10:09:24.302Z,101368.66
2022-08-20T10:11:51.073Z,101362.97
2022-08-20T10:14:17.775Z,101353.53
2022-08-20T10:16:44.471Z,101349.00
2022-08-20T10:19:11.183Z,101341.53
2022-08-20T10:21:39.027Z,101333.25
2022-08-20T10:24:06.185Z,101363.09
2022-08-20T10:26:33.051Z,101340.97
2022-08-20T10:28:59.794Z,101330.84
2022-08-20T10:31:26.480Z,101335.06
2022-08-20T10:33:53.116Z,101278.06
2022-08-20T10:36:20.152Z,101342.22
2022-08-20T10:38:48.597Z,101344.38
2022-08-20T10:41:15.374Z,101325.22
2022-08-20T10:43:42.074Z,101327.47
2022-08-20T10:46:09.165Z,101328.66
2022-08-20T10:48:35.886Z,101348.31
2022-08-20T10:51:02.609Z,101329.66
2022-08-20T10:53:29.631Z,101315.53
2022-08-20T10:55:57.708Z,101285.78
2022-08-20T10:58:25.921Z,101296.94
2022-08-20T11:01:02.357Z,101282.94
2022-08-20T11:03:29.316Z,101277.50
2022-08-20T11:05:56.098Z,101290.47
2022-08-20T11:08:34.430Z,101280.63
2022-08-20T11:11:04.449Z,101309.81
2022-08-20T11:13:31.224Z,101297.31
2022-08-20T11:15:58.015Z,101243.34
2022-08-20T11:18:27.908Z,101235.56
2022-08-20T11:20:55.401Z,101274.66
2022-08-20T11:23:22.433Z,101296.69
2022-08-20T11:25:49.468Z,101337.31
2022-08-20T11:28:16.415Z,101360.50
2022-08-20T11:30:58.149Z,101374.41
2022-08-20T11:33:24.892Z,101354.66
2022-08-20T11:35:51.848Z,101364.44
2022-08-20T11:38:19.327Z,101327.59
2022-08-20T11:40:48.842Z,101360.91
2022-08-20T11:43:17.557Z,101393.78
2022-08-20T11:45:50.821Z,101346.28
2022-08-20T11:48:18.205Z,101437.06
2022-08-20T11:50:45.446Z,101385.34
2022-08-20T11:53:12.202Z,101438.91
2022-08-20T11:55:49.088Z,101439.72
2022-08-20T11:58:22.502Z,101402.50
2022-08-20T12:01:04.190Z,101411.91
2022-08-20T12:03:31.082Z,101425.22
2022-08-20T12:05:58.037Z,101377.13
2022-08-20T12:08:26.824Z,101378.59
2022-08-20T12:10:55.519Z,101400.66
2022-08-20T12:13:31.026Z,101414.91
2022-08-20T12:16:11.114Z,101441.84
2022-08-20T12:18:37.847Z,101437.66
2022-08-20T12:21:04.601Z,101452.59
2022-08-20T12:23:31.442Z,101448.25
2022-08-20T12:25:59.237Z,101368.34
2022-08-20T12:28:26.134Z,101376.38
2022-08-20T12:30:52.854Z,101390.91
2022-08-20T12:33:19.910Z,101374.94
2022-08-20T12:35:46.691Z,101339.81
2022-08-20T12:38:13.639Z,101345.53
2022-08-20T12:40:40.935Z,101348.38
2022-08-20T12:43:08.593Z,101385.28
2022-08-20T12:45:36.414Z,101418.47
2022-08-20T12:48:12.534Z,101412.34
2022-08-20T12:50:41.892Z,101453.38
2022-08-20T12:53:09.297Z,101479.78
2022-08-20T12:55:36.430Z,101486.13
2022-08-20T12:58:04.370Z,101464.53
2022-08-20T13:00:34.816Z,101515.41
2022-08-20T13:03:03.688Z,101497.16
2022-08-20T13:05:31.271Z,101506.41
2022-08-20T13:07:58.249Z,101508.88
2022-08-20T13:10:28.424Z,101523.44
2022-08-20T13:12:56.019Z,101551.38
2022-08-20T13:15:23.545Z,101541.63
2022-08-20T13:17:54.933Z,101548.38
2022-08-20T13:20:34.541Z,101528.31
2022-08-20T13:23:05.655Z,101520.28
2022-08-20T13:25:33.541Z,101518.94
2022-08-20T13:28:03.803Z,101494.44
2022-08-20T13:30:35.488Z,101492.94
2022-08-20T13:33:02.382Z,101479.00
2022-08-20T13:35:30.019Z,101491.56
2022-08-20T13:37:56.884Z,101460.16
2022-08-20T13:40:23.685Z,101438.75
2022-08-20T13:42:50.514Z,101475.13
2022-08-20T13:45:17.645Z,101490.63
2022-08-20T13:47:44.904Z,101419.03
2022-08-20T13:50:18.776Z,101431.19
2022-08-20T13:52:45.999Z,101373.38
2022-08-20T13:55:16.608Z,101371.63
2022-08-20T13:57:44.293Z,101347.75
2022-08-20T14:00:15.086Z,101361.94
2022-08-20T14:02:42.997Z,101397.16
2022-08-20T14:05:11.315Z,101431.91
2022-08-20T14:07:40.941Z,101421.63
2022-08-20T14:10:11.781Z,101437.69
2022-08-20T14:12:38.590Z,101460.56
2022-08-20T14:15:06.867Z,101407.22
2022-08-20T14:17:37.553Z,101435.38
2022-08-20T14:20:17.051Z,101444.06
2022-08-20T14:22:44.511Z,101468.38
2022-08-20T14:25:14.317Z,101515.66
2022-08-20T14:27:41.993Z,101514.97
2022-08-20T14:30:12.603Z,101509.88
2022-08-20T14:32:39.491Z,101532.59
2022-08-20T14:35:07.373Z,101540.41
2022-08-20T14:37:38.080Z,101528.22
2022-08-20T14:40:08.908Z,101531.94
2022-08-20T14:42:36.713Z,101540.50
2022-08-20T14:45:06.480Z,101535.03
2022-08-20T14:47:36.706Z,101512.03
2022-08-20T14:50:09.958Z,101510.94
2022-08-20T14:52:37.478Z,101481.47
2022-08-20T14:55:06.010Z,101457.84
2022-08-20T14:57:33.831Z,101472.03
2022-08-20T15:00:00.750Z,101463.59
2022-08-20T15:02:27.646Z,101464.84
2022-08-20T15:04:54.864Z,101472.66
2022-08-20T15:07:31.556Z,101473.03
2022-08-20T15:10:00.506Z,101486.91
2022-08-20T15:12:28.179Z,101488.13
2022-08-20T15:14:54.971Z,101501.28
2022-08-20T15:17:25.018Z,101501.06
2022-08-20T15:19:52.579Z,101521.91
2022-08-20T15:22:20.862Z,101506.81
2022-08-20T15:24:47.852Z,101516.91
2022-08-20T15:27:22.256Z,101524.84
2022-08-20T15:29:50.725Z,101499.50
2022-08-20T15:32:17.720Z,101507.56
2022-08-20T15:34:44.656Z,101542.97
2022-08-20T15:37:12.681Z,101521.31
2022-08-20T15:39:41.073Z,101517.19
2022-08-20T15:42:08.896Z,101506.63
2022-08-20T15:44:36.541Z,101504.69
2022-08-20T15:47:20.637Z,101525.09
2022-08-20T15:49:49.777Z,101527.53
2022-08-20T15:52:17.897Z,101517.22
2022-08-20T15:54:46.847Z,101530.50
2022-08-20T15:57:44.939Z,101547.16
2022-08-20T16:00:20.138Z,101528.38
2022-08-20T16:02:46.803Z,101546.72
2022-08-20T16:05:27.757Z,101554.34
2022-08-20T16:08:03.801Z,101549.25
2022-08-20T16:10:58.930Z,101550.38
2022-08-20T16:13:40.517Z,101564.28
2022-08-20T16:16:17.926Z,101538.09
2022-08-20T16:18:48.647Z,101550.56
2022-08-20T16:21:19.101Z,101521.44
2022-08-20T16:23:46.146Z,101549.31
2022-08-20T16:26:47.193Z,101547.03
2022-08-20T16:29:30.564Z,101535.28
2022-08-20T16:32:03.796Z,101533.19
2022-08-20T16:34:45.179Z,101542.75
2022-08-20T16:37:28.032Z,101530.28
2022-08-20T16:40:04.131Z,101545.38
2022-08-20T16:42:37.365Z,101519.03
2022-08-20T16:45:07.345Z,101541.72
2022-08-20T16:47:36.374Z,101521.81
2022-08-20T16:50:13.432Z,101525.53
2022-08-20T16:52:42.539Z,101537.47
2022-08-20T16:55:10.046Z,101550.25
2022-08-20T16:57:36.887Z,101566.97
2022-08-20T17:00:15.855Z,101565.81
2022-08-20T17:02:54.014Z,101558.69
2022-08-20T17:05:22.341Z,101559.72
2022-08-20T17:07:53.415Z,101556.09
2022-08-20T17:10:29.878Z,101589.28
2022-08-20T17:13:00.017Z,101599.59
2022-08-20T17:15:30.344Z,101602.78
2022-08-20T17:17:57.798Z,101621.19
2022-08-20T17:20:28.180Z,101640.72
2022-08-20T17:23:10.959Z,101637.09
2022-08-20T17:25:38.458Z,101639.53
2022-08-20T17:28:20.057Z,101645.38
2022-08-20T17:30:47.414Z,101651.59
2022-08-20T17:33:37.392Z,101654.03
2022-08-20T17:36:16.993Z,101651.72
2022-08-20T17:38:47.706Z,101648.47
2022-08-20T17:41:21.910Z,101653.56
2022-08-20T17:43:57.511Z,101665.06
2022-08-20T17:46:27.884Z,101651.56
2022-08-20T17:48:57.776Z,101660.16
2022-08-20T17:51:30.392Z,101656.69
2022-08-20T17:54:08.808Z,101652.47
2022-08-20T17:56:40.861Z,101650.34
2022-08-20T18:00:02.647Z,101653.41
2022-08-20T18:02:15.552Z,101646.63
2022-08-20T18:04:42.851Z,101645.06
2022-08-20T18:07:16.631Z,101654.34
2022-08-20T18:09:52.439Z,101655.53
2022-08-20T18:12:37.078Z,101663.13
2022-08-20T18:15:24.723Z,101664.31
2022-08-20T18:18:10.007Z,101661.56
2022-08-20T18:20:39.494Z,101662.13
2022-08-20T18:23:12.245Z,101669.28
2022-08-20T18:26:02.682Z,101665.38
2022-08-20T18:28:38.695Z,101670.63
2022-08-20T18:31:08.993Z,101663.22
2022-08-20T18:33:45.733Z,101671.19
2022-08-20T18:36:19.469Z,101668.44
2022-08-20T18:39:35.877Z,101670.19
2022-08-20T18:42:06.932Z,101672.50
2022-08-20T18:44:43.888Z,101667.59
2022-08-20T18:47:32.693Z,101665.53
2022-08-20T18:50:27.264Z,101673.38
2022-08-20T18:53:14.765Z,101681.72
2022-08-20T18:55:47.423Z,101679.38
2022-08-20T18:58:34.543Z,101685.34
2022-08-20T19:01:04.826Z,101683.72
2022-08-20T19:03:43.592Z,101685.44
2022-08-20T19:06:20.674Z,101677.03
2022-08-20T19:09:04.311Z,101690.19
2022-08-20T19:11:41.643Z,101693.06
2022-08-20T19:14:22.713Z,101692.16
2022-08-20T19:17:04.725Z,101699.22
2022-08-20T19:19:33.084Z,101700.94
2022-08-20T19:22:02.125Z,101699.59
2022-08-20T19:24:35.016Z,101699.22
2022-08-20T19:27:11.941Z,101702.06
2022-08-20T19:29:49.954Z,101694.09
2022-08-20T19:32:34.509Z,101691.72
2022-08-20T19:35:07.466Z,101684.50
2022-08-20T19:37:51.442Z,101692.44
2022-08-20T19:40:29.976Z,101692.53
2022-08-20T19:43:00.582Z,101690.00
2022-08-20T19:45:41.240Z,101705.50
2022-08-20T19:48:27.531Z,101695.91
2022-08-20T19:51:06.313Z,101690.06
2022-08-20T19:53:36.065Z,101697.25
2022-08-20T19:56:24.288Z,101696.50
2022-08-20T19:59:03.547Z,101691.66
2022-08-20T20:01:30.865Z,101682.69
2022-08-20T20:04:04.021Z,101690.47
2022-08-20T20:06:36.401Z,101684.28
2022-08-20T20:09:08.596Z,101672.41
2022-08-20T20:11:45.009Z,101678.78
2022-08-20T20:14:13.473Z,101668.56
2022-08-20T20:16:42.297Z,101667.00
2022-08-20T20:19:27.975Z,101664.91
2022-08-20T20:22:26.717Z,101675.25
2022-08-20T20:25:19.589Z,101673.16
2022-08-20T20:27:51.803Z,101664.31
2022-08-20T20:30:29.695Z,101659.63
2022-08-20T20:32:58.001Z,101655.31
2022-08-20T20:35:31.590Z,101654.59
2022-08-20T20:38:07.580Z,101642.22
2022-08-20T20:40:51.731Z,101647.38
2022-08-20T20:43:29.436Z,101642.84
2022-08-20T20:46:07.643Z,101645.56
2022-08-20T20:48:50.211Z,101632.25
2022-08-20T20:51:31.105Z,101625.16
2022-08-20T20:54:05.342Z,101625.78
2022-08-20T20:56:42.228Z,101617.03
2022-08-20T20:59:10.420Z,101602.47
2022-08-20T21:01:49.413Z,101603.09
2022-08-20T21:04:23.027Z,101593.53
2022-08-20T21:06:52.444Z,101581.84
2022-08-20T21:09:19.985Z,101581.06
2022-08-20T21:11:47.581Z,101565.78
2022-08-20T21:14:15.054Z,101564.38
2022-08-20T21:16:42.850Z,101570.25
2022-08-20T21:19:11.200Z,101561.66
2022-08-20T21:21:39.099Z,101552.44
2022-08-20T21:24:07.211Z,101558.16
2022-08-20T21:26:34.460Z,101556.41
2022-08-20T21:29:01.338Z,101546.94
2022-08-20T21:31:33.779Z,101540.09
2022-08-20T21:34:00.907Z,101537.75
2022-08-20T21:36:39.899Z,101543.63
2022-08-20T21:39:14.157Z,101539.00
2022-08-20T21:41:42.579Z,101547.13
2022-08-20T21:44:21.527Z,101546.38
2022-08-20T21:46:51.595Z,101548.97
2022-08-20T21:49:19.869Z,101546.88
2022-08-20T21:51:47.834Z,101534.19
2022-08-20T21:54:15.204Z,101534.28
2022-08-20T21:56:42.383Z,101529.91
2022-08-20T21:59:10.348Z,101526.06
2022-08-20T22:01:38.234Z,101517.91
2022-08-20T22:04:06.640Z,101515.78
2022-08-20T22:06:33.812Z,101511.53
2022-08-20T22:09:00.534Z,101502.34
2022-08-20T22:11:27.745Z,101487.94
2022-08-20T22:13:54.520Z,101483.69
2022-08-20T22:16:22.546Z,101476.00
2022-08-20T22:18:50.794Z,101470.28
2022-08-20T22:21:26.776Z,101479.13
2022-08-20T22:23:57.109Z,101461.97
2022-08-20T22:26:27.198Z,101458.09
2022-08-20T22:28:54.444Z,101447.81
2022-08-20T22:31:26.279Z,101444.59
2022-08-20T22:33:53.154Z,101443.97
2022-08-20T22:36:19.868Z,101437.00
2022-08-20T22:38:47.372Z,101437.00
2022-08-20T22:41:22.630Z,101428.41
2022-08-20T22:43:56.970Z,101422.09
2022-08-20T22:46:27.328Z,101425.41
2022-08-20T22:48:55.586Z,101417.31
2022-08-20T22:51:27.596Z,101417.56
2022-08-20T22:53:54.415Z,101410.72
2022-08-20T22:56:22.008Z,101403.63
2022-08-20T22:58:50.145Z,101400.16
2022-08-20T23:01:18.794Z,101391.69
2022-08-20T23:03:45.844Z,101393.81
2022-08-20T23:06:13.050Z,101385.47
2022-08-20T23:08:41.797Z,101383.25
2022-08-20T23:11:08.606Z,101385.81
2022-08-20T23:13:35.380Z,101388.69
2022-08-20T23:16:02.576Z,101378.38
2022-08-20T23:18:29.297Z,101363.59
2022-08-20T23:20:59.007Z,101364.19
2022-08-20T23:23:26.908Z,101359.13
2022-08-20T23:25:54.493Z,101355.63
2022-08-20T23:28:23.964Z,101354.72
2022-08-20T23:30:51.249Z,101348.66
2022-08-20T23:33:18.551Z,101339.72
2022-08-20T23:35:46.074Z,101336.84
2022-08-20T23:38:13.098Z,101332.72
2022-08-20T23:40:40.351Z,101337.44
2022-08-20T23:43:07.621Z,101326.41
2022-08-20T23:45:35.104Z,101326.66
2022-08-20T23:48:06.752Z,101320.69
2022-08-20T23:50:34.131Z,101314.09
2022-08-20T23:53:00.989Z,101311.84
2022-08-20T23:55:28.014Z,101302.81
2022-08-20T23:57:55.309Z,101295.47
